Time;durP1;ratioP1;P1;durP2;ratioP2;P2;SDS_P1;SDS_P2;PMS_P1;PMS_P2;Temp;Humidity;BMP_temperature;BMP_pressure;BME280_temperature;BME280_humidity;BME280_pressure;Samples;Min_cycle;Max_cycle;Signal;HPM_P1;HPM_P2
2022/06/01 00:00:34;;;;;;;4.50;4.13;;;;;;;;;;5064162;28;20457;-80
2022/06/01 00:03:02;;;;;;;4.93;4.10;;;;;;;;;;5063150;28;20499;-81
2022/06/01 00:05:29;;;;;;;4.53;4.13;;;;;;;;;;5065002;28;20454;-82
2022/06/01 00:07:56;;;;;;;4.70;4.17;;;;;;;;;;5063575;28;20449;-80
2022/06/01 00:10:24;;;;;;;3.93;3.63;;;;;;;;;;5063244;28;20459;-83
2022/06/01 00:12:51;;;;;;;6.37;3.90;;;;;;;;;;5066013;28;20465;-82
2022/06/01 00:15:19;;;;;;;4.73;4.20;;;;;;;;;;5069665;28;20446;-81
2022/06/01 00:17:47;;;;;;;5.93;5.27;;;;;;;;;;5066444;28;20449;-81
2022/06/01 00:20:15;;;;;;;6.83;6.13;;;;;;;;;;5065721;28;20476;-82
2022/06/01 00:22:42;;;;;;;5.13;4.63;;;;;;;;;;5067708;28;20434;-82
2022/06/01 00:25:10;;;;;;;5.60;5.10;;;;;;;;;;5066435;28;20434;-81
2022/06/01 00:27:37;;;;;;;5.20;4.80;;;;;;;;;;5066723;28;20446;-80
2022/06/01 00:30:05;;;;;;;8.30;5.20;;;;;;;;;;5066793;28;20477;-80
2022/06/01 00:32:32;;;;;;;4.70;4.30;;;;;;;;;;5066695;28;20441;-81
2022/06/01 00:35:00;;;;;;;4.53;4.13;;;;;;;;;;5064801;28;20438;-80
2022/06/01 00:37:28;;;;;;;4.73;4.33;;;;;;;;;;5066123;28;20441;-80
2022/06/01 00:39:55;;;;;;;6.23;4.77;;;;;;;;;;5067855;28;20527;-80
2022/06/01 00:42:23;;;;;;;4.90;4.50;;;;;;;;;;5063943;28;20503;-81
2022/06/01 00:44:51;;;;;;;4.37;4.00;;;;;;;;;;5064224;28;20480;-81
2022/06/01 00:47:18;;;;;;;4.60;4.27;;;;;;;;;;5063787;28;20487;-81
2022/06/01 00:49:48;;;;;;;6.53;4.07;;;;;;;;;;5063039;28;20492;-81
2022/06/01 00:52:15;;;;;;;4.53;4.20;;;;;;;;;;5063200;28;20446;-82
2022/06/01 00:54:44;;;;;;;5.33;4.87;;;;;;;;;;5063243;28;20660;-82
2022/06/01 00:57:14;;;;;;;4.30;3.90;;;;;;;;;;5062454;28;20861;-82
2022/06/01 00:59:43;;;;;;;4.90;4.53;;;;;;;;;;5061513;28;20485;-80
2022/06/01 01:02:10;;;;;;;4.80;4.40;;;;;;;;;;5061298;28;20450;-81
2022/06/01 01:04:39;;;;;;;5.47;4.97;;;;;;;;;;5059995;28;20665;-80
2022/06/01 01:07:09;;;;;;;4.63;4.33;;;;;;;;;;5059944;28;20441;-81
2022/06/01 01:09:36;;;;;;;5.27;4.77;;;;;;;;;;5063055;28;20485;-81
2022/06/01 01:12:08;;;;;;;5.20;4.70;;;;;;;;;;5063249;28;20438;-80
2022/06/01 01:14:36;;;;;;;5.73;5.30;;;;;;;;;;5063472;28;20448;-80
2022/06/01 01:17:04;;;;;;;5.00;4.70;;;;;;;;;;5062496;28;20503;-82
2022/06/01 01:19:34;;;;;;;4.90;4.60;;;;;;;;;;5062331;28;20545;-82
2022/06/01 01:22:07;;;;;;;4.60;4.20;;;;;;;;;;5062531;28;20449;-80
2022/06/01 01:24:37;;;;;;;5.03;4.53;;;;;;;;;;5063546;28;20449;-80
2022/06/01 01:27:07;;;;;;;4.87;4.57;;;;;;;;;;5062701;28;20441;-80
2022/06/01 01:29:34;;;;;;;5.37;4.77;;;;;;;;;;5050821;28;20519;-82
2022/06/01 01:32:02;;;;;;;4.70;4.30;;;;;;;;;;5064402;28;20482;-80
2022/06/01 01:34:29;;;;;;;5.27;4.87;;;;;;;;;;5073178;28;20430;-79
2022/06/01 01:36:57;;;;;;;5.20;4.80;;;;;;;;;;5087369;28;20439;-81
2022/06/01 01:39:26;;;;;;;5.17;4.80;;;;;;;;;;5093831;28;20465;-80
2022/06/01 01:41:54;;;;;;;5.20;4.73;;;;;;;;;;5090064;28;20429;-80
2022/06/01 01:44:25;;;;;;;5.10;4.70;;;;;;;;;;5081450;28;20438;-81
2022/06/01 01:46:52;;;;;;;5.57;5.13;;;;;;;;;;5071847;28;20422;-80
2022/06/01 01:49:21;;;;;;;5.40;5.00;;;;;;;;;;5067686;28;20512;-80
2022/06/01 01:51:48;;;;;;;6.00;4.90;;;;;;;;;;5065290;28;20686;-81
2022/06/01 01:54:25;;;;;;;4.90;4.60;;;;;;;;;;5063252;28;20456;-82
2022/06/01 01:57:06;;;;;;;4.77;4.37;;;;;;;;;;5068458;28;20414;-82
2022/06/01 01:59:38;;;;;;;5.23;4.40;;;;;;;;;;5075962;28;20461;-81
2022/06/01 02:02:08;;;;;;;5.17;4.80;;;;;;;;;;5069144;28;20426;-81
2022/06/01 02:07:35;;;;;;;5.40;4.90;;;;;;;;;;5028392;28;20491;-81
2022/06/01 02:12:47;;;;;;;7.57;4.17;;;;;;;;;;5065447;28;20421;-81
2022/06/01 02:15:19;;;;;;;5.90;5.40;;;;;;;;;;5063218;28;20507;-82
2022/06/01 02:17:50;;;;;;;4.93;4.53;;;;;;;;;;5063881;28;20434;-82
2022/06/01 02:20:20;;;;;;;5.23;4.90;;;;;;;;;;5063368;28;20489;-82
2022/06/01 02:22:48;;;;;;;5.33;4.90;;;;;;;;;;5062532;28;20446;-82
2022/06/01 02:25:15;;;;;;;8.30;5.47;;;;;;;;;;5063921;28;20462;-81
2022/06/01 02:27:43;;;;;;;5.50;5.03;;;;;;;;;;5063195;28;20963;-81
2022/06/01 02:30:12;;;;;;;5.53;4.67;;;;;;;;;;5063411;28;20481;-82
2022/06/01 02:32:41;;;;;;;5.80;4.90;;;;;;;;;;5063005;28;20437;-81
2022/06/01 02:35:10;;;;;;;5.53;5.03;;;;;;;;;;5062930;28;20433;-82
2022/06/01 02:37:39;;;;;;;6.03;5.50;;;;;;;;;;5063809;28;20437;-81
2022/06/01 02:40:09;;;;;;;5.93;5.37;;;;;;;;;;5063179;28;20473;-81
2022/06/01 02:42:36;;;;;;;5.70;5.23;;;;;;;;;;5061890;28;20809;-82
2022/06/01 02:45:05;;;;;;;5.80;5.30;;;;;;;;;;5062132;28;20453;-81
2022/06/01 02:47:34;;;;;;;5.37;5.00;;;;;;;;;;5062836;28;20449;-82
2022/06/01 02:50:03;;;;;;;7.67;5.43;;;;;;;;;;5062459;28;20501;-81
2022/06/01 02:52:30;;;;;;;5.80;5.40;;;;;;;;;;5063020;28;20905;-81
2022/06/01 02:54:57;;;;;;;7.13;5.87;;;;;;;;;;5063129;28;20449;-82
2022/06/01 02:57:24;;;;;;;6.10;5.67;;;;;;;;;;5061163;28;20454;-82
2022/06/01 02:59:52;;;;;;;6.63;5.20;;;;;;;;;;5060527;28;20503;-80
2022/06/01 03:02:19;;;;;;;6.03;5.53;;;;;;;;;;5060655;28;20450;-82
2022/06/01 03:04:47;;;;;;;6.03;5.43;;;;;;;;;;5061141;28;20482;-81
2022/06/01 03:07:15;;;;;;;6.03;5.57;;;;;;;;;;5060619;28;20472;-81
2022/06/01 03:09:42;;;;;;;5.73;5.33;;;;;;;;;;5061538;28;20572;-81
2022/06/01 03:12:10;;;;;;;6.10;5.53;;;;;;;;;;5061699;28;20449;-80
2022/06/01 03:14:37;;;;;;;5.90;5.40;;;;;;;;;;5062478;28;20480;-81
2022/06/01 03:17:05;;;;;;;6.27;5.80;;;;;;;;;;5062489;28;20452;-81
2022/06/01 03:19:32;;;;;;;6.10;5.60;;;;;;;;;;5062143;28;20461;-80
2022/06/01 03:21:59;;;;;;;6.40;5.37;;;;;;;;;;5064873;28;20453;-81
2022/06/01 03:24:28;;;;;;;7.73;5.90;;;;;;;;;;5062280;28;20448;-82
2022/06/01 03:26:55;;;;;;;6.53;5.93;;;;;;;;;;5062434;28;20430;-80
2022/06/01 03:29:23;;;;;;;6.10;5.60;;;;;;;;;;5061397;28;20481;-83
2022/06/01 03:31:50;;;;;;;5.70;5.20;;;;;;;;;;5062829;28;20455;-81
2022/06/01 03:34:17;;;;;;;8.70;5.43;;;;;;;;;;5064898;28;20477;-82
2022/06/01 03:36:44;;;;;;;6.00;5.30;;;;;;;;;;5067343;28;20438;-81
2022/06/01 03:39:11;;;;;;;6.33;5.80;;;;;;;;;;5062048;28;20867;-81
2022/06/01 03:41:39;;;;;;;5.20;4.87;;;;;;;;;;5061589;28;20572;-79
2022/06/01 03:46:52;;;;;;;5.37;4.97;;;;;;;;;;5065066;28;20446;-80
2022/06/01 03:49:19;;;;;;;5.83;5.20;;;;;;;;;;5065230;28;20596;-83
2022/06/01 03:51:47;;;;;;;6.43;5.33;;;;;;;;;;5065621;28;20952;-82
2022/06/01 03:54:15;;;;;;;8.27;5.63;;;;;;;;;;5064879;28;20721;-81
2022/06/01 03:56:45;;;;;;;6.10;5.50;;;;;;;;;;5064020;28;20453;-81
2022/06/01 03:59:12;;;;;;;6.10;5.50;;;;;;;;;;5065213;28;20489;-81
2022/06/01 04:01:39;;;;;;;6.33;5.73;;;;;;;;;;5065099;28;20615;-82
2022/06/01 04:04:06;;;;;;;6.30;5.90;;;;;;;;;;5064262;28;20826;-81
2022/06/01 04:06:33;;;;;;;6.70;6.20;;;;;;;;;;5063730;28;20476;-80
2022/06/01 04:09:00;;;;;;;6.30;5.87;;;;;;;;;;5062564;28;20496;-81
2022/06/01 04:11:28;;;;;;;6.33;5.87;;;;;;;;;;5065113;28;20433;-81
2022/06/01 04:13:56;;;;;;;7.20;6.60;;;;;;;;;;5064229;28;20480;-81
2022/06/01 04:16:23;;;;;;;5.80;5.40;;;;;;;;;;5064429;28;20441;-81
2022/06/01 04:18:50;;;;;;;6.80;6.40;;;;;;;;;;5066350;28;20563;-81
2022/06/01 04:21:20;;;;;;;6.53;6.03;;;;;;;;;;5064928;28;20445;-80
2022/06/01 04:23:47;;;;;;;6.30;5.70;;;;;;;;;;5059139;28;20441;-81
2022/06/01 04:26:16;;;;;;;6.70;5.60;;;;;;;;;;5060566;28;20438;-81
2022/06/01 04:28:43;;;;;;;6.43;5.80;;;;;;;;;;5062134;28;20952;-80
2022/06/01 04:31:11;;;;;;;5.93;5.40;;;;;;;;;;5064358;28;20484;-82
2022/06/01 04:33:39;;;;;;;5.80;5.20;;;;;;;;;;5062711;28;20441;-81
2022/06/01 04:36:07;;;;;;;5.33;4.57;;;;;;;;;;5063536;28;20430;-82
2022/06/01 04:38:34;;;;;;;11.60;5.63;;;;;;;;;;5064146;28;20993;-82
2022/06/01 04:41:01;;;;;;;7.23;5.10;;;;;;;;;;5063926;28;20434;-80
2022/06/01 04:43:28;;;;;;;5.70;5.20;;;;;;;;;;5062410;28;20446;-81
2022/06/01 04:45:55;;;;;;;7.83;5.73;;;;;;;;;;5055191;28;20453;-81
2022/06/01 04:48:25;;;;;;;5.07;4.77;;;;;;;;;;5064682;28;20883;-80
2022/06/01 04:50:53;;;;;;;5.93;5.43;;;;;;;;;;5064864;28;20821;-80
2022/06/01 04:53:20;;;;;;;6.57;5.90;;;;;;;;;;5066266;28;20503;-81
2022/06/01 04:55:48;;;;;;;5.70;5.30;;;;;;;;;;5062980;28;20453;-82
2022/06/01 04:58:15;;;;;;;9.30;8.50;;;;;;;;;;5061718;28;20940;-81
2022/06/01 05:00:42;;;;;;;9.40;6.00;;;;;;;;;;5061583;28;20445;-81
2022/06/01 05:03:10;;;;;;;6.83;6.23;;;;;;;;;;5060397;28;20434;-82
2022/06/01 05:05:39;;;;;;;4.73;4.33;;;;;;;;;;5062081;28;20438;-81
2022/06/01 05:08:07;;;;;;;6.07;5.57;;;;;;;;;;5061269;28;20525;-81
2022/06/01 05:10:34;;;;;;;4.80;4.40;;;;;;;;;;5060087;28;20477;-82
2022/06/01 05:13:01;;;;;;;4.83;4.37;;;;;;;;;;5061204;28;20446;-81
2022/06/01 05:15:29;;;;;;;5.20;4.80;;;;;;;;;;5063681;28;20430;-81
2022/06/01 05:17:56;;;;;;;5.07;4.53;;;;;;;;;;5067108;28;20454;-81
2022/06/01 05:20:23;;;;;;;5.93;4.33;;;;;;;;;;5060254;28;20454;-82
2022/06/01 05:22:51;;;;;;;5.30;4.90;;;;;;;;;;5059373;28;20466;-80
2022/06/01 05:25:18;;;;;;;4.70;4.40;;;;;;;;;;5057215;28;20437;-80
2022/06/01 05:27:45;;;;;;;5.77;5.27;;;;;;;;;;5055690;28;20453;-80
2022/06/01 05:30:13;;;;;;;6.23;4.47;;;;;;;;;;5054784;28;20485;-81
2022/06/01 05:32:40;;;;;;;4.40;4.10;;;;;;;;;;5055448;28;20438;-81
2022/06/01 05:35:07;;;;;;;4.23;4.03;;;;;;;;;;5056675;28;20854;-79
2022/06/01 05:37:34;;;;;;;5.50;5.10;;;;;;;;;;5059706;28;20441;-81
2022/06/01 05:40:03;;;;;;;4.50;4.00;;;;;;;;;;5058991;28;20485;-81
2022/06/01 05:42:30;;;;;;;6.50;5.87;;;;;;;;;;5058427;28;20430;-82
2022/06/01 05:44:57;;;;;;;4.80;4.50;;;;;;;;;;5059315;28;20452;-82
2022/06/01 05:47:24;;;;;;;4.73;4.30;;;;;;;;;;5058685;28;20442;-80
2022/06/01 05:49:51;;;;;;;7.73;3.90;;;;;;;;;;5057156;28;20960;-81
2022/06/01 05:52:19;;;;;;;5.30;4.00;;;;;;;;;;5057878;28;20433;-82
2022/06/01 05:54:46;;;;;;;4.10;3.80;;;;;;;;;;5058351;28;20497;-80
2022/06/01 05:57:14;;;;;;;4.30;4.00;;;;;;;;;;5058980;28;20472;-81
2022/06/01 05:59:41;;;;;;;4.07;3.77;;;;;;;;;;5059064;28;21089;-80
2022/06/01 06:02:09;;;;;;;5.70;4.00;;;;;;;;;;5060032;28;20430;-81
2022/06/01 06:04:36;;;;;;;4.63;4.20;;;;;;;;;;5060012;28;20438;-81
2022/06/01 06:07:03;;;;;;;5.47;4.07;;;;;;;;;;5060979;28;20438;-80
2022/06/01 06:09:30;;;;;;;4.07;3.70;;;;;;;;;;5059645;28;20473;-80
2022/06/01 06:11:57;;;;;;;4.10;3.80;;;;;;;;;;5060069;28;20490;-80
2022/06/01 06:14:26;;;;;;;3.70;3.40;;;;;;;;;;5059524;28;20438;-80
2022/06/01 06:16:53;;;;;;;4.20;3.73;;;;;;;;;;5060784;28;20454;-82
2022/06/01 06:19:21;;;;;;;3.70;3.50;;;;;;;;;;5062793;28;20453;-81
2022/06/01 06:21:48;;;;;;;3.50;3.20;;;;;;;;;;5063041;28;20441;-81
2022/06/01 06:24:17;;;;;;;4.67;4.30;;;;;;;;;;5062714;28;20445;-80
2022/06/01 06:26:45;;;;;;;4.20;3.90;;;;;;;;;;5066482;28;20511;-81
2022/06/01 06:29:13;;;;;;;3.73;3.47;;;;;;;;;;5067388;28;20564;-81
2022/06/01 06:31:42;;;;;;;4.37;4.07;;;;;;;;;;5063276;28;20789;-82
2022/06/01 06:34:09;;;;;;;3.83;3.53;;;;;;;;;;5062643;28;20429;-81
2022/06/01 06:36:36;;;;;;;3.70;3.40;;;;;;;;;;5062502;28;20453;-81
2022/06/01 06:39:03;;;;;;;3.80;3.40;;;;;;;;;;5061447;28;20465;-80
2022/06/01 06:41:30;;;;;;;4.13;3.73;;;;;;;;;;5061745;28;20438;-81
2022/06/01 06:43:57;;;;;;;4.07;3.77;;;;;;;;;;5065461;28;20441;-80
2022/06/01 06:46:24;;;;;;;4.10;3.73;;;;;;;;;;5065425;28;20445;-81
2022/06/01 06:48:53;;;;;;;3.93;3.63;;;;;;;;;;5063078;28;20466;-80
2022/06/01 06:51:21;;;;;;;5.20;3.50;;;;;;;;;;5063371;28;20481;-81
2022/06/01 06:53:48;;;;;;;3.30;2.97;;;;;;;;;;5069273;28;20506;-80
2022/06/01 06:56:16;;;;;;;3.63;3.33;;;;;;;;;;5070466;28;20450;-81
2022/06/01 06:58:43;;;;;;;6.23;3.60;;;;;;;;;;5068557;28;20457;-82
2022/06/01 07:01:10;;;;;;;4.37;3.40;;;;;;;;;;5061075;28;20445;-81
2022/06/01 07:03:37;;;;;;;3.33;2.97;;;;;;;;;;5060605;28;20450;-80
2022/06/01 07:06:12;;;;;;;3.00;2.80;;;;;;;;;;5060515;28;20438;-80
2022/06/01 07:08:40;;;;;;;4.60;4.20;;;;;;;;;;5059010;28;20982;-80
2022/06/01 07:11:08;;;;;;;4.00;3.00;;;;;;;;;;5052432;28;20480;-80
2022/06/01 07:13:35;;;;;;;3.30;3.00;;;;;;;;;;5052092;28;20488;-81
2022/06/01 07:16:03;;;;;;;3.43;3.13;;;;;;;;;;5052567;28;20441;-80
2022/06/01 07:18:30;;;;;;;3.80;3.10;;;;;;;;;;5056611;28;20531;-81
2022/06/01 07:20:58;;;;;;;3.43;3.23;;;;;;;;;;5061775;28;20437;-81
2022/06/01 07:23:27;;;;;;;3.43;3.13;;;;;;;;;;5061934;28;20457;-80
2022/06/01 07:25:54;;;;;;;4.20;2.87;;;;;;;;;;5063635;28;20649;-79
2022/06/01 07:28:22;;;;;;;3.57;3.13;;;;;;;;;;5065174;28;20465;-81
2022/06/01 07:30:50;;;;;;;2.90;2.70;;;;;;;;;;5060358;28;20500;-80
2022/06/01 07:33:17;;;;;;;2.60;2.40;;;;;;;;;;5059858;28;20937;-80
2022/06/01 07:35:44;;;;;;;2.80;2.60;;;;;;;;;;5061901;28;20438;-80
2022/06/01 07:43:43;;;;;;;3.43;3.13;;;;;;;;;;5062770;28;20496;-80
2022/06/01 07:46:11;;;;;;;2.83;2.63;;;;;;;;;;5063779;28;20823;-80
2022/06/01 07:48:38;;;;;;;3.33;2.93;;;;;;;;;;5062838;28;20487;-80
2022/06/01 07:51:05;;;;;;;4.10;2.77;;;;;;;;;;5062820;28;20843;-81
2022/06/01 07:53:33;;;;;;;2.40;2.23;;;;;;;;;;5063499;28;20507;-81
2022/06/01 07:56:01;;;;;;;2.70;2.50;;;;;;;;;;5063897;28;20446;-82
2022/06/01 07:58:28;;;;;;;4.27;2.73;;;;;;;;;;5063172;28;20822;-80
2022/06/01 08:00:55;;;;;;;3.53;2.73;;;;;;;;;;5061840;28;20521;-80
2022/06/01 08:03:22;;;;;;;8.93;2.87;;;;;;;;;;5062746;28;20449;-83
2022/06/01 08:05:50;;;;;;;3.57;2.43;;;;;;;;;;5062631;28;20865;-81
2022/06/01 08:08:17;;;;;;;2.70;2.27;;;;;;;;;;5062293;28;20437;-82
2022/06/01 08:10:44;;;;;;;3.00;2.50;;;;;;;;;;5062676;28;20470;-82
2022/06/01 08:13:12;;;;;;;2.20;2.10;;;;;;;;;;5062320;28;20446;-80
2022/06/01 08:15:42;;;;;;;3.33;2.50;;;;;;;;;;5062250;28;20521;-80
2022/06/01 08:18:09;;;;;;;2.97;2.00;;;;;;;;;;5062413;28;20449;-80
2022/06/01 08:20:37;;;;;;;2.33;1.90;;;;;;;;;;5061885;28;20434;-80
2022/06/01 08:23:04;;;;;;;3.70;1.90;;;;;;;;;;5061203;28;20445;-80
2022/06/01 08:25:31;;;;;;;2.10;2.00;;;;;;;;;;5061923;28;20430;-82
2022/06/01 08:27:59;;;;;;;2.20;2.03;;;;;;;;;;5054218;28;20484;-80
2022/06/01 08:30:28;;;;;;;2.10;1.90;;;;;;;;;;5062017;28;20473;-81
2022/06/01 08:32:55;;;;;;;1.97;1.77;;;;;;;;;;5061938;28;20449;-80
2022/06/01 08:35:24;;;;;;;2.10;1.90;;;;;;;;;;5061241;28;20433;-80
2022/06/01 08:37:52;;;;;;;2.70;1.80;;;;;;;;;;5062549;28;20464;-80
2022/06/01 08:40:21;;;;;;;2.50;2.30;;;;;;;;;;5064386;28;20488;-80
2022/06/01 08:42:50;;;;;;;2.60;2.40;;;;;;;;;;5063605;28;20434;-82
2022/06/01 08:45:18;;;;;;;2.40;1.90;;;;;;;;;;5063645;28;20834;-80
2022/06/01 08:47:47;;;;;;;4.10;2.00;;;;;;;;;;5063730;28;20437;-81
2022/06/01 08:50:17;;;;;;;2.47;2.17;;;;;;;;;;5062935;28;20541;-81
2022/06/01 08:52:44;;;;;;;2.90;2.70;;;;;;;;;;5061823;28;20568;-80
2022/06/01 08:55:12;;;;;;;3.33;2.30;;;;;;;;;;5060245;28;20452;-80
2022/06/01 08:57:43;;;;;;;3.07;2.53;;;;;;;;;;5057190;28;20450;-81
2022/06/01 09:00:12;;;;;;;2.60;2.40;;;;;;;;;;5066436;28;20461;-81
2022/06/01 09:02:43;;;;;;;2.40;2.20;;;;;;;;;;5066465;28;20991;-79
2022/06/01 09:05:15;;;;;;;3.73;2.80;;;;;;;;;;5056367;28;20522;-80
2022/06/01 09:07:44;;;;;;;4.30;2.87;;;;;;;;;;5057605;28;20437;-79
2022/06/01 09:10:26;;;;;;;4.40;2.80;;;;;;;;;;5058113;28;20465;-79
2022/06/01 09:13:02;;;;;;;4.37;2.67;;;;;;;;;;5058450;28;20515;-80
2022/06/01 09:15:30;;;;;;;2.73;2.53;;;;;;;;;;5060505;28;20844;-80
2022/06/01 09:17:57;;;;;;;3.60;2.80;;;;;;;;;;5061452;28;20450;-80
2022/06/01 09:23:12;;;;;;;2.60;2.50;;;;;;;;;;5061420;28;20427;-80
2022/06/01 09:25:39;;;;;;;2.57;2.37;;;;;;;;;;5061382;28;20487;-80
2022/06/01 09:28:18;;;;;;;2.43;2.23;;;;;;;;;;5061972;28;20536;-80
2022/06/01 09:30:46;;;;;;;2.77;2.53;;;;;;;;;;5062604;28;20458;-79
2022/06/01 09:33:15;;;;;;;2.70;2.50;;;;;;;;;;5063952;28;20452;-81
2022/06/01 09:35:45;;;;;;;2.80;2.60;;;;;;;;;;5063722;28;20446;-80
2022/06/01 09:38:18;;;;;;;4.03;2.73;;;;;;;;;;5061427;28;20460;-80
2022/06/01 09:40:45;;;;;;;2.87;2.30;;;;;;;;;;5064561;28;20426;-80
2022/06/01 09:43:22;;;;;;;2.63;2.43;;;;;;;;;;5059398;28;20449;-80
2022/06/01 09:45:53;;;;;;;5.87;3.03;;;;;;;;;;5061151;28;20449;-80
2022/06/01 09:48:24;;;;;;;2.83;2.63;;;;;;;;;;5059563;28;20472;-82
2022/06/01 09:51:00;;;;;;;4.47;2.93;;;;;;;;;;5060793;28;20503;-79
2022/06/01 09:53:31;;;;;;;2.50;2.30;;;;;;;;;;5059090;28;20472;-79
2022/06/01 09:55:59;;;;;;;3.40;2.70;;;;;;;;;;5058032;28;20460;-82
2022/06/01 10:06:54;;;;;;;2.67;1.97;;;;;;;;;;5060213;28;20438;-81
2022/06/01 10:09:23;;;;;;;2.00;1.90;;;;;;;;;;5053472;28;20478;-83
2022/06/01 10:11:51;;;;;;;2.50;2.30;;;;;;;;;;5058004;28;20492;-80
2022/06/01 10:14:20;;;;;;;1.90;1.80;;;;;;;;;;5058561;28;20528;-81
2022/06/01 10:16:51;;;;;;;1.57;1.40;;;;;;;;;;5060015;28;20921;-80
2022/06/01 10:19:19;;;;;;;2.90;1.67;;;;;;;;;;5060837;28;20907;-81
2022/06/01 10:21:50;;;;;;;1.80;1.70;;;;;;;;;;5060428;28;20438;-79
2022/06/01 10:24:21;;;;;;;1.83;1.70;;;;;;;;;;5060294;28;20434;-80
2022/06/01 10:26:51;;;;;;;1.60;1.50;;;;;;;;;;5058897;28;20453;-82
2022/06/01 10:29:20;;;;;;;3.27;1.97;;;;;;;;;;5059550;28;20454;-82
2022/06/01 10:31:50;;;;;;;2.50;1.67;;;;;;;;;;5059965;28;20469;-82
2022/06/01 10:34:18;;;;;;;3.30;1.33;;;;;;;;;;5059818;28;20447;-81
2022/06/01 10:36:49;;;;;;;2.10;2.00;;;;;;;;;;5059604;28;20787;-81
2022/06/01 10:39:21;;;;;;;1.93;1.30;;;;;;;;;;5058481;28;20461;-79
2022/06/01 10:41:51;;;;;;;1.60;1.50;;;;;;;;;;5057220;28;20446;-80
2022/06/01 10:44:24;;;;;;;4.27;1.23;;;;;;;;;;5057504;28;20479;-80
2022/06/01 10:46:54;;;;;;;1.33;1.33;;;;;;;;;;5057874;28;20465;-79
2022/06/01 10:49:31;;;;;;;1.50;1.40;;;;;;;;;;5056767;28;20465;-79
2022/06/01 10:52:02;;;;;;;1.40;1.30;;;;;;;;;;5057012;28;20481;-79
2022/06/01 10:54:35;;;;;;;1.80;1.70;;;;;;;;;;5057822;28;20441;-79
2022/06/01 10:57:03;;;;;;;1.67;1.40;;;;;;;;;;5063509;28;20460;-83
2022/06/01 10:59:30;;;;;;;1.40;1.30;;;;;;;;;;5062715;28;20829;-81
2022/06/01 11:02:02;;;;;;;2.03;1.90;;;;;;;;;;5062247;28;20814;-80
2022/06/01 11:04:47;;;;;;;1.43;1.33;;;;;;;;;;5062441;28;20456;-81
2022/06/01 11:07:22;;;;;;;2.53;1.60;;;;;;;;;;5063914;28;20448;-82
2022/06/01 11:10:00;;;;;;;1.40;1.30;;;;;;;;;;5063506;28;20503;-80
2022/06/01 11:12:32;;;;;;;5.03;1.30;;;;;;;;;;5057629;28;20505;-80
2022/06/01 11:15:11;;;;;;;1.20;1.10;;;;;;;;;;5048271;28;20434;-80
2022/06/01 11:17:44;;;;;;;1.80;1.70;;;;;;;;;;5065376;28;21031;-82
2022/06/01 11:20:28;;;;;;;1.43;1.33;;;;;;;;;;5066019;28;20481;-81
2022/06/01 11:23:04;;;;;;;1.73;1.53;;;;;;;;;;5065238;28;20425;-82
2022/06/01 11:25:35;;;;;;;1.70;1.60;;;;;;;;;;5066198;28;20552;-80
2022/06/01 11:28:13;;;;;;;2.57;1.50;;;;;;;;;;5066387;28;20441;-82
2022/06/01 11:30:46;;;;;;;1.43;1.30;;;;;;;;;;5065828;28;20437;-81
2022/06/01 11:33:18;;;;;;;1.37;1.27;;;;;;;;;;5064475;28;20461;-81
2022/06/01 11:35:49;;;;;;;2.17;1.60;;;;;;;;;;5065560;28;20442;-80
2022/06/01 11:38:19;;;;;;;2.30;1.40;;;;;;;;;;5065665;28;20445;-81
2022/06/01 11:40:51;;;;;;;1.30;1.20;;;;;;;;;;5065553;28;20533;-81
2022/06/01 11:43:21;;;;;;;5.50;1.27;;;;;;;;;;5065072;28;20450;-81
2022/06/01 11:45:50;;;;;;;2.07;1.30;;;;;;;;;;5064068;28;20465;-82
2022/06/01 11:48:21;;;;;;;1.57;1.30;;;;;;;;;;5065121;28;20445;-81
2022/06/01 11:50:57;;;;;;;1.00;1.00;;;;;;;;;;5064608;28;20538;-82
2022/06/01 11:53:30;;;;;;;2.07;1.33;;;;;;;;;;5065064;28;20485;-83
2022/06/01 11:56:11;;;;;;;1.80;1.70;;;;;;;;;;5064717;28;20483;-80
2022/06/01 11:58:42;;;;;;;1.50;1.40;;;;;;;;;;5063287;28;20847;-80
2022/06/01 12:01:14;;;;;;;1.87;1.70;;;;;;;;;;5064626;28;20430;-82
2022/06/01 12:03:53;;;;;;;3.43;1.40;;;;;;;;;;5065101;28;20433;-81
2022/06/01 12:06:35;;;;;;;2.20;2.00;;;;;;;;;;5064681;28;20445;-82
2022/06/01 12:09:03;;;;;;;1.40;1.30;;;;;;;;;;5064803;28;20458;-81
2022/06/01 12:11:45;;;;;;;2.70;1.40;;;;;;;;;;5064522;28;20445;-81
2022/06/01 12:14:33;;;;;;;1.77;1.67;;;;;;;;;;5064635;28;20461;-81
2022/06/01 12:17:18;;;;;;;1.40;1.37;;;;;;;;;;5064636;28;20441;-81
2022/06/01 12:19:47;;;;;;;1.80;1.47;;;;;;;;;;5063618;28;20999;-81
2022/06/01 12:30:50;;;;;;;1.63;1.53;;;;;;;;;;5065282;28;20449;-82
2022/06/01 12:33:17;;;;;;;4.47;1.70;;;;;;;;;;5063731;28;20477;-82
2022/06/01 12:35:49;;;;;;;2.40;1.77;;;;;;;;;;5064290;28;20438;-81
2022/06/01 12:38:20;;;;;;;1.90;1.80;;;;;;;;;;5063449;28;20829;-82
2022/06/01 12:40:58;;;;;;;1.63;1.53;;;;;;;;;;5063380;28;20445;-82
2022/06/01 12:43:26;;;;;;;2.03;1.83;;;;;;;;;;5062103;28;20434;-81
2022/06/01 12:45:55;;;;;;;2.80;1.40;;;;;;;;;;5063740;28;20484;-81
2022/06/01 12:48:23;;;;;;;1.63;1.53;;;;;;;;;;5065322;28;20468;-81
2022/06/01 12:50:52;;;;;;;5.03;1.47;;;;;;;;;;5068933;28;20449;-81
2022/06/01 12:53:20;;;;;;;3.70;1.77;;;;;;;;;;5067694;28;20480;-83
2022/06/01 12:55:48;;;;;;;2.63;1.87;;;;;;;;;;5064465;28;20442;-82
2022/06/01 12:58:18;;;;;;;2.57;1.97;;;;;;;;;;5067146;28;20472;-80
2022/06/01 13:00:46;;;;;;;2.43;2.27;;;;;;;;;;5065104;28;20449;-81
2022/06/01 13:03:15;;;;;;;2.07;1.83;;;;;;;;;;5063511;28;20452;-82
2022/06/01 13:05:46;;;;;;;2.23;2.13;;;;;;;;;;5064113;28;20452;-83
2022/06/01 13:08:17;;;;;;;3.07;1.90;;;;;;;;;;5065184;28;20446;-80
2022/06/01 13:10:44;;;;;;;2.07;1.87;;;;;;;;;;5059047;28;20483;-81
2022/06/01 13:13:12;;;;;;;3.60;1.70;;;;;;;;;;5058645;28;20473;-80
2022/06/01 13:15:42;;;;;;;2.73;1.73;;;;;;;;;;5063798;28;20488;-80
2022/06/01 13:18:14;;;;;;;1.83;1.73;;;;;;;;;;5059027;28;20430;-80
2022/06/01 13:20:43;;;;;;;2.67;1.87;;;;;;;;;;5057948;28;20430;-81
2022/06/01 13:23:15;;;;;;;2.80;1.83;;;;;;;;;;5056906;28;20442;-80
2022/06/01 13:25:43;;;;;;;2.00;1.90;;;;;;;;;;5056540;28;20511;-80
2022/06/01 13:28:10;;;;;;;1.93;1.83;;;;;;;;;;5058461;28;20478;-81
2022/06/01 13:30:37;;;;;;;2.23;2.00;;;;;;;;;;5058181;28;20449;-81
2022/06/01 13:33:16;;;;;;;3.33;2.23;;;;;;;;;;5058704;28;20473;-80
2022/06/01 13:35:45;;;;;;;3.60;2.10;;;;;;;;;;5059778;28;20860;-81
2022/06/01 13:38:17;;;;;;;2.03;1.93;;;;;;;;;;5060791;28;20518;-81
2022/06/01 13:40:47;;;;;;;2.03;1.93;;;;;;;;;;5062173;28;20437;-82
2022/06/01 13:43:17;;;;;;;2.30;2.10;;;;;;;;;;5063060;28;20446;-81
2022/06/01 13:45:50;;;;;;;2.53;2.43;;;;;;;;;;5063524;28;20528;-81
2022/06/01 13:48:20;;;;;;;2.27;2.00;;;;;;;;;;5064929;28;20445;-79
2022/06/01 13:50:54;;;;;;;3.93;2.20;;;;;;;;;;5065424;28;20571;-82
2022/06/01 13:53:24;;;;;;;7.07;2.20;;;;;;;;;;5061898;28;20461;-81
2022/06/01 13:55:57;;;;;;;2.67;1.90;;;;;;;;;;5062946;28;20497;-80
2022/06/01 13:58:29;;;;;;;2.33;2.20;;;;;;;;;;5062147;28;20453;-80
2022/06/01 14:01:04;;;;;;;1.97;1.87;;;;;;;;;;5062444;28;20454;-81
2022/06/01 14:03:35;;;;;;;2.87;2.20;;;;;;;;;;5061564;28;20437;-82
2022/06/01 14:06:06;;;;;;;6.20;2.30;;;;;;;;;;5063376;28;20446;-82
2022/06/01 14:08:34;;;;;;;2.33;1.77;;;;;;;;;;5061150;28;20953;-82
2022/06/01 14:11:03;;;;;;;2.23;2.10;;;;;;;;;;5061769;28;20957;-81
2022/06/01 14:13:31;;;;;;;2.20;1.90;;;;;;;;;;5063036;28;20553;-80
2022/06/01 14:15:58;;;;;;;3.50;1.60;;;;;;;;;;5062546;28;20969;-81
2022/06/01 14:18:26;;;;;;;3.30;2.10;;;;;;;;;;5063953;28;20525;-81
2022/06/01 14:20:54;;;;;;;3.60;2.17;;;;;;;;;;5063214;28;20503;-81
2022/06/01 14:23:22;;;;;;;2.07;1.97;;;;;;;;;;5062287;28;20437;-82
2022/06/01 14:28:36;;;;;;;2.20;2.00;;;;;;;;;;5062029;28;20468;-81
2022/06/01 14:31:05;;;;;;;1.93;1.83;;;;;;;;;;5063519;28;20460;-80
2022/06/01 14:33:32;;;;;;;3.00;2.30;;;;;;;;;;5062054;28;20507;-80
2022/06/01 14:35:59;;;;;;;2.07;1.97;;;;;;;;;;5061906;28;20426;-81
2022/06/01 14:38:28;;;;;;;2.63;2.10;;;;;;;;;;5062186;28;20465;-81
2022/06/01 14:40:56;;;;;;;2.53;2.33;;;;;;;;;;5061472;28;20472;-80
2022/06/01 14:43:25;;;;;;;3.07;2.30;;;;;;;;;;5064133;28;20473;-81
2022/06/01 14:45:52;;;;;;;2.07;1.97;;;;;;;;;;5063584;28;20457;-80
2022/06/01 14:48:20;;;;;;;2.13;2.03;;;;;;;;;;5062727;28;20454;-81
2022/06/01 14:50:47;;;;;;;3.07;1.93;;;;;;;;;;5062854;28;20445;-81
2022/06/01 14:53:19;;;;;;;2.17;2.07;;;;;;;;;;5060598;28;20531;-81
2022/06/01 14:55:47;;;;;;;2.43;2.20;;;;;;;;;;5060103;28;20419;-81
2022/06/01 14:58:14;;;;;;;3.67;2.17;;;;;;;;;;5060114;28;20967;-82
2022/06/01 15:00:41;;;;;;;2.17;1.97;;;;;;;;;;5062377;28;20447;-82
2022/06/01 15:03:10;;;;;;;1.87;1.77;;;;;;;;;;5063785;28;20449;-80
2022/06/01 15:05:37;;;;;;;2.30;2.07;;;;;;;;;;5064678;28;20454;-81
2022/06/01 15:08:04;;;;;;;2.40;2.20;;;;;;;;;;5063764;28;20496;-80
2022/06/01 15:10:32;;;;;;;2.23;1.90;;;;;;;;;;5071846;28;20438;-81
2022/06/01 15:13:00;;;;;;;2.03;1.93;;;;;;;;;;5071102;28;20485;-83
2022/06/01 15:15:27;;;;;;;4.57;2.33;;;;;;;;;;5069199;28;20426;-81
2022/06/01 15:17:54;;;;;;;2.80;1.90;;;;;;;;;;5068107;28;20438;-80
2022/06/01 15:20:21;;;;;;;1.90;1.80;;;;;;;;;;5064115;28;20465;-81
2022/06/01 15:22:48;;;;;;;2.67;2.23;;;;;;;;;;5060603;28;20469;-80
2022/06/01 15:25:15;;;;;;;2.73;2.57;;;;;;;;;;5054910;28;20437;-80
2022/06/01 15:27:42;;;;;;;1.90;1.80;;;;;;;;;;5053333;28;20449;-80
2022/06/01 15:41:11;;;;;;;2.00;1.90;;;;;;;;;;5065736;28;20420;-81